sensor_id;sensor_type;location;lat;lon;timestamp;temperature;humidity
1377;DHT22;682;52.502;13.488;2023-02-03T00:00:08;2.90;1.00
1377;DHT22;682;52.502;13.488;2023-02-03T00:02:36;3.00;1.00
1377;DHT22;682;52.502;13.488;2023-02-03T00:05:03;2.90;1.00
1377;DHT22;682;52.502;13.488;2023-02-03T00:07:31;2.90;1.00
1377;DHT22;682;52.502;13.488;2023-02-03T00:09:59;2.90;1.00
1377;DHT22;682;52.502;13.488;2023-02-03T00:12:28;2.90;1.00
1377;DHT22;682;52.502;13.488;2023-02-03T00:14:55;3.00;1.00
1377;DHT22;682;52.502;13.488;2023-02-03T00:17:23;3.00;1.00
1377;DHT22;682;52.502;13.488;2023-02-03T00:19:50;3.00;1.00
1377;DHT22;682;52.502;13.488;2023-02-03T00:22:20;3.00;1.00
1377;DHT22;682;52.502;13.488;2023-02-03T00:24:48;3.00;1.00
1377;DHT22;682;52.502;13.488;2023-02-03T00:27:15;2.90;1.00
1377;DHT22;682;52.502;13.488;2023-02-03T00:29:42;3.00;1.00
1377;DHT22;682;52.502;13.488;2023-02-03T00:32:09;3.10;1.00
1377;DHT22;682;52.502;13.488;2023-02-03T00:34:46;3.00;1.00
1377;DHT22;682;52.502;13.488;2023-02-03T00:37:13;3.10;1.00
1377;DHT22;682;52.502;13.488;2023-02-03T00:39:41;3.00;1.00
1377;DHT22;682;52.502;13.488;2023-02-03T00:42:08;3.00;1.00
1377;DHT22;682;52.502;13.488;2023-02-03T00:44:35;2.90;1.00
1377;DHT22;682;52.502;13.488;2023-02-03T00:47:02;2.90;1.00
1377;DHT22;682;52.502;13.488;2023-02-03T00:49:29;2.80;1.00
1377;DHT22;682;52.502;13.488;2023-02-03T00:51:59;2.80;1.00
1377;DHT22;682;52.502;13.488;2023-02-03T00:54:26;2.90;1.00
1377;DHT22;682;52.502;13.488;2023-02-03T00:56:53;2.90;1.00
1377;DHT22;682;52.502;13.488;2023-02-03T00:59:20;2.90;1.00
1377;DHT22;682;52.502;13.488;2023-02-03T01:01:47;2.90;1.00
1377;DHT22;682;52.502;13.488;2023-02-03T01:04:15;3.00;1.00
1377;DHT22;682;52.502;13.488;2023-02-03T01:06:42;3.00;1.00
1377;DHT22;682;52.502;13.488;2023-02-03T01:09:12;3.00;1.00
1377;DHT22;682;52.502;13.488;2023-02-03T01:11:39;3.00;1.00
1377;DHT22;682;52.502;13.488;2023-02-03T01:14:12;3.10;1.00
1377;DHT22;682;52.502;13.488;2023-02-03T01:16:39;3.10;1.00
1377;DHT22;682;52.502;13.488;2023-02-03T01:19:06;3.10;1.00
1377;DHT22;682;52.502;13.488;2023-02-03T01:21:39;3.10;1.00
1377;DHT22;682;52.502;13.488;2023-02-03T01:24:06;3.10;1.00
1377;DHT22;682;52.502;13.488;2023-02-03T01:26:35;3.10;1.00
1377;DHT22;682;52.502;13.488;2023-02-03T01:29:02;3.20;1.00
1377;DHT22;682;52.502;13.488;2023-02-03T01:31:31;3.20;1.00
1377;DHT22;682;52.502;13.488;2023-02-03T01:34:02;3.20;1.00
1377;DHT22;682;52.502;13.488;2023-02-03T01:36:30;3.20;1.00
1377;DHT22;682;52.502;13.488;2023-02-03T01:39:00;3.10;1.00
1377;DHT22;682;52.502;13.488;2023-02-03T01:41:29;3.10;1.00
1377;DHT22;682;52.502;13.488;2023-02-03T01:44:00;3.10;1.00
1377;DHT22;682;52.502;13.488;2023-02-03T01:46:29;3.10;1.00
1377;DHT22;682;52.502;13.488;2023-02-03T01:49:03;3.10;1.00
1377;DHT22;682;52.502;13.488;2023-02-03T01:51:33;3.10;1.00
1377;DHT22;682;52.502;13.488;2023-02-03T01:54:02;3.10;1.00
1377;DHT22;682;52.502;13.488;2023-02-03T01:56:32;3.00;1.00
1377;DHT22;682;52.502;13.488;2023-02-03T01:59:02;3.00;1.00
1377;DHT22;682;52.502;13.488;2023-02-03T02:01:30;3.00;1.00
1377;DHT22;682;52.502;13.488;2023-02-03T02:04:01;3.00;1.00
1377;DHT22;682;52.502;13.488;2023-02-03T02:06:29;2.90;1.00
1377;DHT22;682;52.502;13.488;2023-02-03T02:09:00;2.90;1.00
1377;DHT22;682;52.502;13.488;2023-02-03T02:11:28;2.90;1.00
1377;DHT22;682;52.502;13.488;2023-02-03T02:13:59;2.90;1.00
1377;DHT22;682;52.502;13.488;2023-02-03T02:16:38;2.90;1.00
1377;DHT22;682;52.502;13.488;2023-02-03T02:19:32;2.90;1.00
1377;DHT22;682;52.502;13.488;2023-02-03T02:22:09;2.90;1.00
1377;DHT22;682;52.502;13.488;2023-02-03T02:24:58;2.90;1.00
1377;DHT22;682;52.502;13.488;2023-02-03T02:30:46;2.80;1.00
1377;DHT22;682;52.502;13.488;2023-02-03T02:33:30;2.80;1.00
1377;DHT22;682;52.502;13.488;2023-02-03T02:36:08;2.80;1.00
1377;DHT22;682;52.502;13.488;2023-02-03T02:38:49;2.80;1.00
1377;DHT22;682;52.502;13.488;2023-02-03T02:41:24;2.80;1.00
1377;DHT22;682;52.502;13.488;2023-02-03T02:43:57;2.80;1.00
1377;DHT22;682;52.502;13.488;2023-02-03T02:46:32;2.70;1.00
1377;DHT22;682;52.502;13.488;2023-02-03T02:49:06;2.70;1.00
1377;DHT22;682;52.502;13.488;2023-02-03T02:51:37;2.60;1.00
1377;DHT22;682;52.502;13.488;2023-02-03T02:54:06;2.60;1.00
1377;DHT22;682;52.502;13.488;2023-02-03T02:56:38;2.50;1.00
1377;DHT22;682;52.502;13.488;2023-02-03T02:59:06;2.50;1.00
1377;DHT22;682;52.502;13.488;2023-02-03T03:01:34;2.40;1.00
1377;DHT22;682;52.502;13.488;2023-02-03T03:04:06;2.40;1.00
1377;DHT22;682;52.502;13.488;2023-02-03T03:06:35;2.40;1.00
1377;DHT22;682;52.502;13.488;2023-02-03T03:09:06;2.40;1.00
1377;DHT22;682;52.502;13.488;2023-02-03T03:11:36;2.40;1.00
1377;DHT22;682;52.502;13.488;2023-02-03T03:14:11;2.40;1.00
1377;DHT22;682;52.502;13.488;2023-02-03T03:16:43;2.40;1.00
1377;DHT22;682;52.502;13.488;2023-02-03T03:19:17;2.40;1.00
1377;DHT22;682;52.502;13.488;2023-02-03T03:21:48;2.40;1.00
1377;DHT22;682;52.502;13.488;2023-02-03T03:24:21;2.40;1.00
1377;DHT22;682;52.502;13.488;2023-02-03T03:26:51;2.40;1.00
1377;DHT22;682;52.502;13.488;2023-02-03T03:29:23;2.50;1.00
1377;DHT22;682;52.502;13.488;2023-02-03T03:31:52;2.40;1.00
1377;DHT22;682;52.502;13.488;2023-02-03T03:34:22;2.40;1.00
1377;DHT22;682;52.502;13.488;2023-02-03T03:36:54;2.50;1.00
1377;DHT22;682;52.502;13.488;2023-02-03T03:39:31;2.50;1.00
1377;DHT22;682;52.502;13.488;2023-02-03T03:42:07;2.40;1.00
1377;DHT22;682;52.502;13.488;2023-02-03T03:44:41;2.50;1.00
1377;DHT22;682;52.502;13.488;2023-02-03T03:47:14;2.50;1.00
1377;DHT22;682;52.502;13.488;2023-02-03T03:49:46;2.50;1.00
1377;DHT22;682;52.502;13.488;2023-02-03T03:52:23;2.50;1.00
1377;DHT22;682;52.502;13.488;2023-02-03T03:54:53;2.50;1.00
1377;DHT22;682;52.502;13.488;2023-02-03T03:57:23;2.50;1.00
1377;DHT22;682;52.502;13.488;2023-02-03T03:59:52;2.60;1.00
1377;DHT22;682;52.502;13.488;2023-02-03T04:02:23;2.70;1.00
1377;DHT22;682;52.502;13.488;2023-02-03T04:04:53;2.80;1.00
1377;DHT22;682;52.502;13.488;2023-02-03T04:07:22;2.70;1.00
1377;DHT22;682;52.502;13.488;2023-02-03T04:09:50;2.80;1.00
1377;DHT22;682;52.502;13.488;2023-02-03T04:12:25;2.80;1.00
1377;DHT22;682;52.502;13.488;2023-02-03T04:14:52;3.00;1.00
1377;DHT22;682;52.502;13.488;2023-02-03T04:17:24;3.10;1.00
1377;DHT22;682;52.502;13.488;2023-02-03T04:19:54;3.10;1.00
1377;DHT22;682;52.502;13.488;2023-02-03T04:22:32;3.10;1.00
1377;DHT22;682;52.502;13.488;2023-02-03T04:25:06;3.20;1.00
1377;DHT22;682;52.502;13.488;2023-02-03T04:27:33;3.30;1.00
1377;DHT22;682;52.502;13.488;2023-02-03T04:30:02;3.40;1.00
1377;DHT22;682;52.502;13.488;2023-02-03T04:32:30;3.40;1.00
1377;DHT22;682;52.502;13.488;2023-02-03T04:35:07;3.50;1.00
1377;DHT22;682;52.502;13.488;2023-02-03T04:37:35;3.50;1.00
1377;DHT22;682;52.502;13.488;2023-02-03T04:40:04;3.50;1.00
1377;DHT22;682;52.502;13.488;2023-02-03T04:42:32;3.50;1.00
1377;DHT22;682;52.502;13.488;2023-02-03T04:45:04;3.60;1.00
1377;DHT22;682;52.502;13.488;2023-02-03T04:47:31;3.60;1.00
1377;DHT22;682;52.502;13.488;2023-02-03T04:50:00;3.70;1.00
1377;DHT22;682;52.502;13.488;2023-02-03T04:52:35;3.80;1.00
1377;DHT22;682;52.502;13.488;2023-02-03T04:55:03;3.80;1.00
1377;DHT22;682;52.502;13.488;2023-02-03T04:57:32;3.90;1.00
1377;DHT22;682;52.502;13.488;2023-02-03T05:00:04;4.00;1.00
1377;DHT22;682;52.502;13.488;2023-02-03T05:02:31;4.00;1.00
1377;DHT22;682;52.502;13.488;2023-02-03T05:04:59;4.10;1.00
1377;DHT22;682;52.502;13.488;2023-02-03T05:07:41;4.20;1.00
1377;DHT22;682;52.502;13.488;2023-02-03T05:10:11;4.20;1.00
1377;DHT22;682;52.502;13.488;2023-02-03T05:12:45;4.30;1.00
1377;DHT22;682;52.502;13.488;2023-02-03T05:15:12;4.40;1.00
1377;DHT22;682;52.502;13.488;2023-02-03T05:17:40;4.50;1.00
1377;DHT22;682;52.502;13.488;2023-02-03T05:20:10;4.60;1.00
1377;DHT22;682;52.502;13.488;2023-02-03T05:22:38;4.60;1.00
1377;DHT22;682;52.502;13.488;2023-02-03T05:25:07;4.70;1.00
1377;DHT22;682;52.502;13.488;2023-02-03T05:27:45;4.80;1.00
1377;DHT22;682;52.502;13.488;2023-02-03T05:30:12;4.90;1.00
1377;DHT22;682;52.502;13.488;2023-02-03T05:32:45;5.00;1.00
1377;DHT22;682;52.502;13.488;2023-02-03T05:35:12;5.00;1.00
1377;DHT22;682;52.502;13.488;2023-02-03T05:37:44;5.10;1.00
1377;DHT22;682;52.502;13.488;2023-02-03T05:40:13;5.10;1.00
1377;DHT22;682;52.502;13.488;2023-02-03T05:42:57;5.20;1.00
1377;DHT22;682;52.502;13.488;2023-02-03T05:45:26;5.30;1.00
1377;DHT22;682;52.502;13.488;2023-02-03T05:47:56;5.40;1.00
1377;DHT22;682;52.502;13.488;2023-02-03T05:50:23;5.40;1.00
1377;DHT22;682;52.502;13.488;2023-02-03T05:52:53;5.50;1.00
1377;DHT22;682;52.502;13.488;2023-02-03T05:55:26;5.60;1.00
1377;DHT22;682;52.502;13.488;2023-02-03T05:57:53;5.70;1.00
1377;DHT22;682;52.502;13.488;2023-02-03T06:00:23;5.70;1.00
1377;DHT22;682;52.502;13.488;2023-02-03T06:02:51;5.80;1.00
1377;DHT22;682;52.502;13.488;2023-02-03T06:05:18;5.80;1.00
1377;DHT22;682;52.502;13.488;2023-02-03T06:07:54;5.90;1.00
1377;DHT22;682;52.502;13.488;2023-02-03T06:10:25;6.00;1.00
1377;DHT22;682;52.502;13.488;2023-02-03T06:12:55;6.10;1.00
1377;DHT22;682;52.502;13.488;2023-02-03T06:15:25;6.20;1.00
1377;DHT22;682;52.502;13.488;2023-02-03T06:17:52;6.30;1.00
1377;DHT22;682;52.502;13.488;2023-02-03T06:20:20;6.30;1.00
1377;DHT22;682;52.502;13.488;2023-02-03T06:22:47;6.40;1.00
1377;DHT22;682;52.502;13.488;2023-02-03T06:25:15;6.50;1.00
1377;DHT22;682;52.502;13.488;2023-02-03T06:27:44;6.50;1.00
1377;DHT22;682;52.502;13.488;2023-02-03T06:30:11;6.50;1.00
1377;DHT22;682;52.502;13.488;2023-02-03T06:32:39;6.60;1.00
1377;DHT22;682;52.502;13.488;2023-02-03T06:35:08;6.60;1.00
1377;DHT22;682;52.502;13.488;2023-02-03T06:37:35;6.60;1.00
1377;DHT22;682;52.502;13.488;2023-02-03T06:40:06;6.70;1.00
1377;DHT22;682;52.502;13.488;2023-02-03T06:42:35;6.70;1.00
1377;DHT22;682;52.502;13.488;2023-02-03T06:45:05;6.80;1.00
1377;DHT22;682;52.502;13.488;2023-02-03T06:47:48;6.80;1.00
1377;DHT22;682;52.502;13.488;2023-02-03T06:50:15;6.80;1.00
1377;DHT22;682;52.502;13.488;2023-02-03T06:52:45;6.80;1.00
1377;DHT22;682;52.502;13.488;2023-02-03T06:55:12;6.80;1.00
1377;DHT22;682;52.502;13.488;2023-02-03T06:57:47;6.90;1.00
1377;DHT22;682;52.502;13.488;2023-02-03T07:00:16;6.90;1.00
1377;DHT22;682;52.502;13.488;2023-02-03T07:02:45;6.90;1.00
1377;DHT22;682;52.502;13.488;2023-02-03T07:05:26;6.90;1.00
1377;DHT22;682;52.502;13.488;2023-02-03T07:07:53;7.00;1.00
1377;DHT22;682;52.502;13.488;2023-02-03T07:10:24;7.00;1.00
1377;DHT22;682;52.502;13.488;2023-02-03T07:12:52;7.00;1.00
1377;DHT22;682;52.502;13.488;2023-02-03T07:15:24;7.00;1.00
1377;DHT22;682;52.502;13.488;2023-02-03T07:17:51;7.10;1.00
1377;DHT22;682;52.502;13.488;2023-02-03T07:20:25;7.10;1.00
1377;DHT22;682;52.502;13.488;2023-02-03T07:22:54;7.10;1.00
1377;DHT22;682;52.502;13.488;2023-02-03T07:25:27;7.10;1.00
1377;DHT22;682;52.502;13.488;2023-02-03T07:27:55;7.10;1.00
1377;DHT22;682;52.502;13.488;2023-02-03T07:30:25;7.20;1.00
1377;DHT22;682;52.502;13.488;2023-02-03T07:32:54;7.20;1.00
1377;DHT22;682;52.502;13.488;2023-02-03T07:35:25;7.20;1.00
1377;DHT22;682;52.502;13.488;2023-02-03T07:37:55;7.20;1.00
1377;DHT22;682;52.502;13.488;2023-02-03T07:40:24;7.20;1.00
1377;DHT22;682;52.502;13.488;2023-02-03T07:42:55;7.20;1.00
1377;DHT22;682;52.502;13.488;2023-02-03T07:45:22;7.20;1.00
1377;DHT22;682;52.502;13.488;2023-02-03T07:47:55;7.30;1.00
1377;DHT22;682;52.502;13.488;2023-02-03T07:50:23;7.30;1.00
1377;DHT22;682;52.502;13.488;2023-02-03T07:52:56;7.30;1.00
1377;DHT22;682;52.502;13.488;2023-02-03T07:55:23;7.30;1.00
1377;DHT22;682;52.502;13.488;2023-02-03T07:57:52;7.30;1.00
1377;DHT22;682;52.502;13.488;2023-02-03T08:00:24;7.30;1.00
1377;DHT22;682;52.502;13.488;2023-02-03T08:02:54;7.30;1.00
1377;DHT22;682;52.502;13.488;2023-02-03T08:05:21;7.30;1.00
1377;DHT22;682;52.502;13.488;2023-02-03T08:07:48;7.30;1.00
1377;DHT22;682;52.502;13.488;2023-02-03T08:10:21;7.30;1.00
1377;DHT22;682;52.502;13.488;2023-02-03T08:12:51;7.30;1.00
1377;DHT22;682;52.502;13.488;2023-02-03T08:15:19;7.30;1.00
1377;DHT22;682;52.502;13.488;2023-02-03T08:17:49;7.30;1.00
1377;DHT22;682;52.502;13.488;2023-02-03T08:20:17;7.40;1.00
1377;DHT22;682;52.502;13.488;2023-02-03T08:22:44;7.40;1.00
1377;DHT22;682;52.502;13.488;2023-02-03T08:25:17;7.40;1.00
1377;DHT22;682;52.502;13.488;2023-02-03T08:27:44;7.30;1.00
1377;DHT22;682;52.502;13.488;2023-02-03T08:30:12;7.40;1.00
1377;DHT22;682;52.502;13.488;2023-02-03T08:32:44;7.40;1.00
1377;DHT22;682;52.502;13.488;2023-02-03T08:35:14;7.40;1.00
1377;DHT22;682;52.502;13.488;2023-02-03T08:37:44;7.40;1.00
1377;DHT22;682;52.502;13.488;2023-02-03T08:40:17;7.40;1.00
1377;DHT22;682;52.502;13.488;2023-02-03T08:42:45;7.40;1.00
1377;DHT22;682;52.502;13.488;2023-02-03T08:45:15;7.40;1.00
1377;DHT22;682;52.502;13.488;2023-02-03T08:47:42;7.40;1.00
1377;DHT22;682;52.502;13.488;2023-02-03T08:50:16;7.40;1.00
1377;DHT22;682;52.502;13.488;2023-02-03T08:52:46;7.40;1.00
1377;DHT22;682;52.502;13.488;2023-02-03T08:55:15;7.40;1.00
1377;DHT22;682;52.502;13.488;2023-02-03T08:57:44;7.50;1.00
1377;DHT22;682;52.502;13.488;2023-02-03T09:00:15;7.50;1.00
1377;DHT22;682;52.502;13.488;2023-02-03T09:02:44;7.50;1.00
1377;DHT22;682;52.502;13.488;2023-02-03T09:05:14;7.50;1.00
1377;DHT22;682;52.502;13.488;2023-02-03T09:07:47;7.50;1.00
1377;DHT22;682;52.502;13.488;2023-02-03T09:10:16;7.50;1.00
1377;DHT22;682;52.502;13.488;2023-02-03T09:12:43;7.50;1.00
1377;DHT22;682;52.502;13.488;2023-02-03T09:15:10;7.60;1.00
1377;DHT22;682;52.502;13.488;2023-02-03T09:17:37;7.60;1.00
1377;DHT22;682;52.502;13.488;2023-02-03T09:20:06;7.60;1.00
1377;DHT22;682;52.502;13.488;2023-02-03T09:22:35;7.60;1.00
1377;DHT22;682;52.502;13.488;2023-02-03T09:25:06;7.60;1.00
1377;DHT22;682;52.502;13.488;2023-02-03T09:27:40;7.60;1.00
1377;DHT22;682;52.502;13.488;2023-02-03T09:30:08;7.60;1.00
1377;DHT22;682;52.502;13.488;2023-02-03T09:32:40;7.60;1.00
1377;DHT22;682;52.502;13.488;2023-02-03T09:35:27;7.60;1.00
1377;DHT22;682;52.502;13.488;2023-02-03T09:38:14;7.60;1.00
1377;DHT22;682;52.502;13.488;2023-02-03T09:41:39;7.70;1.00
1377;DHT22;682;52.502;13.488;2023-02-03T09:47:38;7.70;1.00
1377;DHT22;682;52.502;13.488;2023-02-03T09:50:17;7.70;1.00
1377;DHT22;682;52.502;13.488;2023-02-03T09:52:58;7.70;1.00
1377;DHT22;682;52.502;13.488;2023-02-03T09:55:38;7.70;1.00
1377;DHT22;682;52.502;13.488;2023-02-03T09:58:11;7.80;1.00
1377;DHT22;682;52.502;13.488;2023-02-03T10:00:41;7.80;1.00
1377;DHT22;682;52.502;13.488;2023-02-03T10:03:21;7.80;1.00
1377;DHT22;682;52.502;13.488;2023-02-03T10:06:11;7.80;1.00
1377;DHT22;682;52.502;13.488;2023-02-03T10:09:02;7.90;1.00
1377;DHT22;682;52.502;13.488;2023-02-03T10:12:01;7.90;1.00
1377;DHT22;682;52.502;13.488;2023-02-03T10:15:47;7.90;1.00
1377;DHT22;682;52.502;13.488;2023-02-03T10:18:28;7.90;1.00
1377;DHT22;682;52.502;13.488;2023-02-03T10:21:12;7.90;1.00
1377;DHT22;682;52.502;13.488;2023-02-03T10:23:47;8.00;1.00
1377;DHT22;682;52.502;13.488;2023-02-03T10:26:19;8.00;1.00
1377;DHT22;682;52.502;13.488;2023-02-03T10:28:50;8.00;1.00
1377;DHT22;682;52.502;13.488;2023-02-03T10:31:35;8.00;1.00
1377;DHT22;682;52.502;13.488;2023-02-03T10:34:09;8.00;1.00
1377;DHT22;682;52.502;13.488;2023-02-03T10:36:54;8.10;1.00
1377;DHT22;682;52.502;13.488;2023-02-03T10:39:30;8.10;1.00
1377;DHT22;682;52.502;13.488;2023-02-03T10:41:58;8.10;1.00
1377;DHT22;682;52.502;13.488;2023-02-03T10:44:36;8.10;1.00
1377;DHT22;682;52.502;13.488;2023-02-03T10:47:19;8.10;1.00
1377;DHT22;682;52.502;13.488;2023-02-03T10:50:14;8.20;1.00
1377;DHT22;682;52.502;13.488;2023-02-03T10:52:42;7.80;1.00
1377;DHT22;682;52.502;13.488;2023-02-03T10:55:27;7.40;1.00
1377;DHT22;682;52.502;13.488;2023-02-03T10:57:56;7.20;1.00
1377;DHT22;682;52.502;13.488;2023-02-03T11:00:28;7.00;1.00
1377;DHT22;682;52.502;13.488;2023-02-03T11:03:20;7.00;1.00
1377;DHT22;682;52.502;13.488;2023-02-03T11:06:06;7.00;1.00
1377;DHT22;682;52.502;13.488;2023-02-03T11:08:37;7.10;1.00
1377;DHT22;682;52.502;13.488;2023-02-03T11:11:08;7.20;1.00
1377;DHT22;682;52.502;13.488;2023-02-03T11:13:35;7.20;1.00
1377;DHT22;682;52.502;13.488;2023-02-03T11:16:04;7.20;1.00
1377;DHT22;682;52.502;13.488;2023-02-03T11:18:43;7.30;1.00
1377;DHT22;682;52.502;13.488;2023-02-03T11:21:15;7.30;1.00
1377;DHT22;682;52.502;13.488;2023-02-03T11:23:48;7.30;1.00
1377;DHT22;682;52.502;13.488;2023-02-03T11:26:19;7.30;1.00
1377;DHT22;682;52.502;13.488;2023-02-03T11:28:49;7.40;1.00
1377;DHT22;682;52.502;13.488;2023-02-03T11:31:20;7.50;1.00
1377;DHT22;682;52.502;13.488;2023-02-03T11:33:52;7.50;1.00
1377;DHT22;682;52.502;13.488;2023-02-03T11:36:20;7.50;1.00
1377;DHT22;682;52.502;13.488;2023-02-03T11:39:17;7.60;1.00
1377;DHT22;682;52.502;13.488;2023-02-03T11:41:47;7.60;1.00
1377;DHT22;682;52.502;13.488;2023-02-03T11:44:20;7.70;1.00
1377;DHT22;682;52.502;13.488;2023-02-03T11:46:54;7.80;1.00
1377;DHT22;682;52.502;13.488;2023-02-03T11:55:37;8.10;1.00
1377;DHT22;682;52.502;13.488;2023-02-03T11:58:28;8.20;1.00
1377;DHT22;682;52.502;13.488;2023-02-03T12:01:16;8.50;1.00
1377;DHT22;682;52.502;13.488;2023-02-03T12:04:08;8.80;1.00
1377;DHT22;682;52.502;13.488;2023-02-03T12:07:07;9.20;1.00
1377;DHT22;682;52.502;13.488;2023-02-03T12:09:55;9.60;1.00
1377;DHT22;682;52.502;13.488;2023-02-03T12:12:40;9.50;1.00
1377;DHT22;682;52.502;13.488;2023-02-03T12:15:34;9.70;1.00
1377;DHT22;682;52.502;13.488;2023-02-03T12:18:14;10.20;1.00
1377;DHT22;682;52.502;13.488;2023-02-03T12:20:53;11.00;1.00
1377;DHT22;682;52.502;13.488;2023-02-03T12:23:40;11.20;1.00
1377;DHT22;682;52.502;13.488;2023-02-03T12:26:19;11.30;1.00
1377;DHT22;682;52.502;13.488;2023-02-03T12:28:57;10.80;1.00
1377;DHT22;682;52.502;13.488;2023-02-03T12:31:38;10.60;1.00
1377;DHT22;682;52.502;13.488;2023-02-03T12:34:14;10.70;1.00
1377;DHT22;682;52.502;13.488;2023-02-03T12:36:47;10.60;1.00
1377;DHT22;682;52.502;13.488;2023-02-03T12:39:27;10.50;1.00
1377;DHT22;682;52.502;13.488;2023-02-03T12:42:13;10.60;1.00
1377;DHT22;682;52.502;13.488;2023-02-03T12:44:45;11.00;1.00
1377;DHT22;682;52.502;13.488;2023-02-03T12:47:19;10.70;1.00
1377;DHT22;682;52.502;13.488;2023-02-03T12:49:52;10.40;1.00
1377;DHT22;682;52.502;13.488;2023-02-03T12:52:25;10.30;1.00
1377;DHT22;682;52.502;13.488;2023-02-03T12:55:05;10.30;1.00
1377;DHT22;682;52.502;13.488;2023-02-03T12:57:53;10.00;1.00
1377;DHT22;682;52.502;13.488;2023-02-03T13:00:36;9.50;1.00
1377;DHT22;682;52.502;13.488;2023-02-03T13:03:11;8.90;1.00
1377;DHT22;682;52.502;13.488;2023-02-03T13:05:42;7.80;1.00
1377;DHT22;682;52.502;13.488;2023-02-03T13:08:21;6.90;1.00
1377;DHT22;682;52.502;13.488;2023-02-03T13:10:52;6.30;1.00
1377;DHT22;682;52.502;13.488;2023-02-03T13:13:30;6.00;1.00
1377;DHT22;682;52.502;13.488;2023-02-03T13:15:59;5.80;1.00
1377;DHT22;682;52.502;13.488;2023-02-03T13:18:31;5.80;1.00
1377;DHT22;682;52.502;13.488;2023-02-03T13:21:04;5.90;1.00
1377;DHT22;682;52.502;13.488;2023-02-03T13:23:31;5.90;1.00
1377;DHT22;682;52.502;13.488;2023-02-03T13:26:16;5.90;1.00
1377;DHT22;682;52.502;13.488;2023-02-03T13:29:05;5.90;1.00
1377;DHT22;682;52.502;13.488;2023-02-03T13:31:42;5.90;1.00
1377;DHT22;682;52.502;13.488;2023-02-03T13:34:28;5.90;1.00
1377;DHT22;682;52.502;13.488;2023-02-03T13:40:11;5.80;1.00
1377;DHT22;682;52.502;13.488;2023-02-03T13:42:42;5.90;1.00
1377;DHT22;682;52.502;13.488;2023-02-03T13:45:19;6.00;1.00
1377;DHT22;682;52.502;13.488;2023-02-03T13:47:50;6.30;1.00
1377;DHT22;682;52.502;13.488;2023-02-03T13:50:21;6.60;1.00
1377;DHT22;682;52.502;13.488;2023-02-03T13:52:57;7.10;1.00
1377;DHT22;682;52.502;13.488;2023-02-03T13:55:36;7.30;1.00
1377;DHT22;682;52.502;13.488;2023-02-03T13:58:05;7.10;1.00
1377;DHT22;682;52.502;13.488;2023-02-03T14:03:45;6.80;1.00
1377;DHT22;682;52.502;13.488;2023-02-03T14:09:37;6.70;1.00
1377;DHT22;682;52.502;13.488;2023-02-03T14:12:30;6.80;1.00
1377;DHT22;682;52.502;13.488;2023-02-03T14:15:12;6.90;1.00
1377;DHT22;682;52.502;13.488;2023-02-03T14:17:56;7.00;1.00
1377;DHT22;682;52.502;13.488;2023-02-03T14:23:40;7.40;1.00
1377;DHT22;682;52.502;13.488;2023-02-03T14:26:16;7.50;1.00
1377;DHT22;682;52.502;13.488;2023-02-03T14:28:45;7.50;1.00
1377;DHT22;682;52.502;13.488;2023-02-03T14:31:15;7.60;1.00
1377;DHT22;682;52.502;13.488;2023-02-03T14:34:07;7.70;1.00
1377;DHT22;682;52.502;13.488;2023-02-03T14:36:49;7.80;1.00
1377;DHT22;682;52.502;13.488;2023-02-03T14:39:47;7.90;1.00
1377;DHT22;682;52.502;13.488;2023-02-03T14:45:41;7.90;1.00
1377;DHT22;682;52.502;13.488;2023-02-03T14:48:24;8.00;1.00
1377;DHT22;682;52.502;13.488;2023-02-03T14:51:01;7.90;1.00
1377;DHT22;682;52.502;13.488;2023-02-03T14:53:57;7.90;1.00
1377;DHT22;682;52.502;13.488;2023-02-03T14:56:45;7.90;1.00
1377;DHT22;682;52.502;13.488;2023-02-03T14:59:37;7.90;1.00
1377;DHT22;682;52.502;13.488;2023-02-03T15:02:12;7.80;1.00
1377;DHT22;682;52.502;13.488;2023-02-03T15:04:41;7.80;1.00
1377;DHT22;682;52.502;13.488;2023-02-03T15:07:33;7.80;1.00
1377;DHT22;682;52.502;13.488;2023-02-03T15:10:03;7.70;1.00
1377;DHT22;682;52.502;13.488;2023-02-03T15:12:34;7.70;1.00
1377;DHT22;682;52.502;13.488;2023-02-03T15:15:21;7.70;1.00
1377;DHT22;682;52.502;13.488;2023-02-03T15:17:52;7.60;1.00
1377;DHT22;682;52.502;13.488;2023-02-03T15:20:33;7.60;1.00
1377;DHT22;682;52.502;13.488;2023-02-03T15:23:18;7.60;1.00
1377;DHT22;682;52.502;13.488;2023-02-03T15:25:52;7.70;1.00
1377;DHT22;682;52.502;13.488;2023-02-03T15:28:20;7.70;1.00
1377;DHT22;682;52.502;13.488;2023-02-03T15:30:53;7.80;1.00
1377;DHT22;682;52.502;13.488;2023-02-03T15:33:23;7.80;1.00
1377;DHT22;682;52.502;13.488;2023-02-03T15:35:53;7.80;1.00
1377;DHT22;682;52.502;13.488;2023-02-03T15:38:24;7.80;1.00
1377;DHT22;682;52.502;13.488;2023-02-03T15:40:55;7.80;1.00
1377;DHT22;682;52.502;13.488;2023-02-03T15:43:28;7.80;1.00
1377;DHT22;682;52.502;13.488;2023-02-03T15:46:02;7.80;1.00
1377;DHT22;682;52.502;13.488;2023-02-03T15:48:43;7.70;1.00
1377;DHT22;682;52.502;13.488;2023-02-03T15:51:14;7.70;1.00
1377;DHT22;682;52.502;13.488;2023-02-03T15:53:53;7.70;1.00
1377;DHT22;682;52.502;13.488;2023-02-03T15:56:29;7.60;1.00
1377;DHT22;682;52.502;13.488;2023-02-03T15:59:05;7.60;1.00
1377;DHT22;682;52.502;13.488;2023-02-03T16:01:46;7.60;1.00
1377;DHT22;682;52.502;13.488;2023-02-03T16:04:13;7.50;1.00
1377;DHT22;682;52.502;13.488;2023-02-03T16:06:44;7.50;1.00
1377;DHT22;682;52.502;13.488;2023-02-03T16:09:39;7.50;1.00
1377;DHT22;682;52.502;13.488;2023-02-03T16:12:22;7.40;1.00
1377;DHT22;682;52.502;13.488;2023-02-03T16:14:49;7.40;1.00
1377;DHT22;682;52.502;13.488;2023-02-03T16:17:25;7.40;1.00
1377;DHT22;682;52.502;13.488;2023-02-03T16:20:24;7.30;1.00
1377;DHT22;682;52.502;13.488;2023-02-03T16:23:02;7.30;1.00
1377;DHT22;682;52.502;13.488;2023-02-03T16:25:30;7.30;1.00
1377;DHT22;682;52.502;13.488;2023-02-03T16:28:10;7.30;1.00
1377;DHT22;682;52.502;13.488;2023-02-03T16:30:59;7.40;1.00
1377;DHT22;682;52.502;13.488;2023-02-03T16:33:47;7.40;1.00
1377;DHT22;682;52.502;13.488;2023-02-03T16:36:32;7.30;1.00
1377;DHT22;682;52.502;13.488;2023-02-03T16:39:17;7.30;1.00
1377;DHT22;682;52.502;13.488;2023-02-03T16:42:13;7.30;1.00
1377;DHT22;682;52.502;13.488;2023-02-03T16:44:59;7.30;1.00
1377;DHT22;682;52.502;13.488;2023-02-03T16:47:45;7.30;1.00
1377;DHT22;682;52.502;13.488;2023-02-03T16:50:30;7.30;1.00
1377;DHT22;682;52.502;13.488;2023-02-03T16:53:19;7.30;1.00
1377;DHT22;682;52.502;13.488;2023-02-03T16:55:47;7.30;1.00
1377;DHT22;682;52.502;13.488;2023-02-03T16:58:14;7.30;1.00
1377;DHT22;682;52.502;13.488;2023-02-03T17:00:48;7.20;1.00
1377;DHT22;682;52.502;13.488;2023-02-03T17:03:17;7.20;1.00
1377;DHT22;682;52.502;13.488;2023-02-03T17:05:46;7.20;1.00
1377;DHT22;682;52.502;13.488;2023-02-03T17:08:14;7.20;1.00
1377;DHT22;682;52.502;13.488;2023-02-03T17:10:43;7.30;1.00
1377;DHT22;682;52.502;13.488;2023-02-03T17:13:15;7.20;1.00
1377;DHT22;682;52.502;13.488;2023-02-03T17:15:45;7.30;1.00
1377;DHT22;682;52.502;13.488;2023-02-03T17:18:13;7.20;1.00
1377;DHT22;682;52.502;13.488;2023-02-03T17:20:42;7.20;1.00
1377;DHT22;682;52.502;13.488;2023-02-03T17:23:10;7.20;1.00
1377;DHT22;682;52.502;13.488;2023-02-03T17:25:39;7.30;1.00
1377;DHT22;682;52.502;13.488;2023-02-03T17:28:09;7.30;1.00
1377;DHT22;682;52.502;13.488;2023-02-03T17:30:37;7.30;1.00
1377;DHT22;682;52.502;13.488;2023-02-03T17:33:06;7.30;1.00
1377;DHT22;682;52.502;13.488;2023-02-03T17:35:37;7.40;1.00
1377;DHT22;682;52.502;13.488;2023-02-03T17:38:07;7.40;1.00
1377;DHT22;682;52.502;13.488;2023-02-03T17:40:38;7.40;1.00
1377;DHT22;682;52.502;13.488;2023-02-03T17:43:07;7.50;1.00
1377;DHT22;682;52.502;13.488;2023-02-03T17:45:38;7.50;1.00